Time;durP1;ratioP1;P1;durP2;ratioP2;P2;SDS_P1;SDS_P2;PMS_P1;PMS_P2;Temp;Humidity;BMP_temperature;BMP_pressure;BME280_temperature;BME280_humidity;BME280_pressure;Samples;Min_cycle;Max_cycle;Signal;HPM_P1;HPM_P2
2023/05/02 00:02:20;;;;;;;10.73;8.38;;;11.30;95.90;;;;;;5070438;28;20045;-58
2023/05/02 00:04:46;;;;;;;10.25;9.02;;;11.30;95.20;;;;;;5070623;28;20109;-59
2023/05/02 00:07:12;;;;;;;12.45;8.52;;;11.30;94.30;;;;;;5071221;28;20021;-58
2023/05/02 00:09:37;;;;;;;8.80;7.38;;;11.30;94.90;;;;;;5071307;28;20037;-58
2023/05/02 00:12:03;;;;;;;8.88;7.65;;;11.30;94.90;;;;;;5070934;28;20025;-58
2023/05/02 00:14:29;;;;;;;7.72;7.00;;;11.30;94.60;;;;;;5070794;28;20020;-59
2023/05/02 00:16:55;;;;;;;10.32;7.10;;;11.40;95.00;;;;;;5069491;28;20029;-58
2023/05/02 00:19:20;;;;;;;7.40;6.68;;;11.40;94.90;;;;;;5070161;28;20017;-58
2023/05/02 00:21:47;;;;;;;8.20;7.18;;;11.40;94.30;;;;;;5071686;28;20052;-58
2023/05/02 00:24:15;;;;;;;7.50;6.75;;;11.30;94.30;;;;;;5070608;28;20467;-59
2023/05/02 00:26:40;;;;;;;7.55;6.80;;;11.40;94.60;;;;;;5071542;28;20040;-59
2023/05/02 00:29:07;;;;;;;7.50;6.57;;;11.30;95.00;;;;;;5071608;28;20024;-58
2023/05/02 00:31:32;;;;;;;8.88;7.53;;;11.30;94.30;;;;;;5071566;28;20013;-57
2023/05/02 00:33:58;;;;;;;9.05;8.10;;;11.30;94.70;;;;;;5071490;28;20016;-58
2023/05/02 00:36:23;;;;;;;9.02;7.72;;;11.30;94.70;;;;;;5071087;28;20055;-58
2023/05/02 00:38:49;;;;;;;9.77;7.75;;;11.30;94.50;;;;;;5071282;28;20048;-58
2023/05/02 00:41:16;;;;;;;8.05;7.13;;;11.20;95.20;;;;;;5070913;28;20023;-58
2023/05/02 00:43:42;;;;;;;8.20;7.38;;;11.20;94.70;;;;;;5070829;28;20029;-58
2023/05/02 00:46:08;;;;;;;7.63;6.88;;;11.20;95.10;;;;;;5071076;28;20039;-58
2023/05/02 00:48:34;;;;;;;8.13;7.32;;;11.10;95.40;;;;;;5071364;28;20442;-58
2023/05/02 00:51:04;;;;;;;6.72;4.78;;;11.10;96.10;;;;;;5071507;28;20107;-58
2023/05/02 00:53:30;;;;;;;5.38;4.90;;;11.10;93.60;;;;;;5071156;28;20101;-58
2023/05/02 00:55:58;;;;;;;5.90;5.40;;;11.10;93.00;;;;;;5071300;28;20029;-59
2023/05/02 00:58:24;;;;;;;5.30;4.50;;;11.00;94.30;;;;;;5071439;28;20021;-58
2023/05/02 01:01:06;;;;;;;5.72;4.78;;;11.10;94.30;;;;;;5071434;28;20029;-59
2023/05/02 01:03:48;;;;;;;4.60;4.20;;;11.10;93.60;;;;;;5070963;28;20433;-59
2023/05/02 01:06:47;;;;;;;4.68;4.18;;;11.10;93.30;;;;;;5070818;28;20035;-58
2023/05/02 01:09:22;;;;;;;3.75;3.45;;;11.00;93.70;;;;;;5070772;28;20017;-58
2023/05/02 01:11:51;;;;;;;6.20;3.65;;;11.00;92.10;;;;;;5070313;28;20474;-58
2023/05/02 01:14:19;;;;;;;4.70;3.38;;;11.00;91.60;;;;;;5070588;28;20031;-59
2023/05/02 01:16:46;;;;;;;3.58;3.28;;;10.90;92.80;;;;;;5071142;28;20462;-58
2023/05/02 01:19:35;;;;;;;4.00;3.53;;;11.00;92.00;;;;;;5071310;28;20077;-58
2023/05/02 01:22:05;;;;;;;3.58;3.05;;;11.00;90.20;;;;;;5071185;28;20149;-58
2023/05/02 01:25:00;;;;;;;2.97;2.75;;;11.00;90.80;;;;;;5070887;28;20016;-58
2023/05/02 01:28:03;;;;;;;3.13;2.92;;;11.00;91.00;;;;;;5061520;28;20560;-59
2023/05/02 01:30:32;;;;;;;3.50;3.20;;;11.00;91.60;;;;;;5072778;28;20103;-58
2023/05/02 01:33:00;;;;;;;3.38;3.08;;;10.90;90.40;;;;;;5074518;28;20039;-58
2023/05/02 01:35:27;;;;;;;3.10;2.80;;;10.80;91.10;;;;;;5074613;28;20033;-58
2023/05/02 01:37:54;;;;;;;3.38;3.13;;;10.80;91.60;;;;;;5074730;28;20016;-58
2023/05/02 01:40:22;;;;;;;2.83;2.63;;;10.90;90.80;;;;;;5074538;28;20029;-58
2023/05/02 01:42:49;;;;;;;3.33;3.05;;;10.90;90.30;;;;;;5074584;28;20052;-58
2023/05/02 01:45:17;;;;;;;3.00;2.80;;;10.90;91.40;;;;;;5074521;28;20388;-58
2023/05/02 01:47:44;;;;;;;2.80;2.60;;;10.90;91.80;;;;;;5074207;28;20078;-58
2023/05/02 01:50:23;;;;;;;3.17;2.88;;;10.90;92.00;;;;;;5074554;28;20016;-58
2023/05/02 01:52:50;;;;;;;3.08;2.78;;;11.00;90.20;;;;;;5074452;28;20467;-58
2023/05/02 01:55:17;;;;;;;3.47;3.17;;;11.00;88.70;;;;;;5074344;28;20116;-58
2023/05/02 01:57:45;;;;;;;2.80;2.60;;;11.00;90.50;;;;;;5074236;28;20072;-59
2023/05/02 02:00:12;;;;;;;3.00;2.70;;;11.10;89.70;;;;;;5074203;28;20048;-58
2023/05/02 02:02:41;;;;;;;4.78;3.10;;;11.00;89.70;;;;;;5073759;28;20090;-58
2023/05/02 02:05:09;;;;;;;3.13;2.78;;;11.00;90.00;;;;;;5074319;28;20086;-59
2023/05/02 02:07:35;;;;;;;5.45;2.90;;;11.00;87.50;;;;;;5074105;28;20021;-59
2023/05/02 02:10:01;;;;;;;3.28;2.92;;;11.00;90.10;;;;;;5074103;28;20016;-59
2023/05/02 02:12:41;;;;;;;3.17;2.72;;;11.00;89.80;;;;;;5073793;28;20524;-59
2023/05/02 02:15:16;;;;;;;3.50;3.20;;;11.00;86.40;;;;;;5074009;28;20036;-58
2023/05/02 02:18:29;;;;;;;3.05;2.85;;;11.00;86.60;;;;;;5073884;28;20171;-58
2023/05/02 02:20:56;;;;;;;4.35;3.20;;;11.00;85.80;;;;;;5050399;28;20068;-58
2023/05/02 02:23:25;;;;;;;3.83;3.50;;;10.90;90.20;;;;;;5073773;28;20025;-58
2023/05/02 02:25:53;;;;;;;3.50;3.20;;;10.90;90.20;;;;;;5072696;28;20020;-58
2023/05/02 02:28:18;;;;;;;3.55;3.25;;;10.90;87.80;;;;;;5073767;28;20032;-58
2023/05/02 02:30:44;;;;;;;3.60;3.30;;;10.80;90.60;;;;;;5073600;28;20035;-58
2023/05/02 02:33:10;;;;;;;4.40;3.88;;;10.80;90.80;;;;;;5073574;28;20055;-59
2023/05/02 02:35:47;;;;;;;4.43;3.50;;;10.80;90.20;;;;;;5073548;28;20021;-59
2023/05/02 02:38:41;;;;;;;3.63;3.33;;;10.80;90.80;;;;;;5073640;28;20479;-59
2023/05/02 02:41:24;;;;;;;4.97;3.58;;;10.80;90.60;;;;;;5072922;28;20090;-58
2023/05/02 02:44:13;;;;;;;3.47;3.17;;;10.70;89.40;;;;;;5073222;28;20493;-58
2023/05/02 02:46:51;;;;;;;4.38;3.97;;;10.70;91.80;;;;;;5073191;28;20024;-58
2023/05/02 02:49:58;;;;;;;3.88;3.53;;;10.70;92.20;;;;;;5073378;28;20451;-59
2023/05/02 02:52:39;;;;;;;4.07;3.63;;;10.70;92.00;;;;;;5073131;28;20033;-59
2023/05/02 02:55:29;;;;;;;4.63;4.18;;;10.70;91.90;;;;;;5072797;28;20027;-58
2023/05/02 02:57:59;;;;;;;4.25;3.95;;;10.70;92.20;;;;;;5071991;28;20108;-58
2023/05/02 03:00:27;;;;;;;4.22;3.83;;;10.70;92.50;;;;;;5071874;28;20032;-58
2023/05/02 03:02:54;;;;;;;4.55;4.15;;;10.70;92.00;;;;;;5071922;28;20127;-58
2023/05/02 03:05:22;;;;;;;4.78;4.28;;;10.60;93.20;;;;;;5072140;28;20024;-58
2023/05/02 03:07:48;;;;;;;6.93;5.00;;;10.70;93.40;;;;;;5070865;28;20223;-58
2023/05/02 03:10:13;;;;;;;8.13;5.43;;;10.70;93.60;;;;;;5072325;28;20545;-59
2023/05/02 03:12:39;;;;;;;5.07;4.65;;;10.70;93.70;;;;;;5072510;28;20081;-58
2023/05/02 03:15:32;;;;;;;5.80;5.30;;;10.70;94.10;;;;;;5071409;28;20105;-59
2023/05/02 03:17:58;;;;;;;5.00;4.50;;;10.70;94.90;;;;;;5072872;28;20100;-58
2023/05/02 03:20:24;;;;;;;5.53;4.55;;;10.60;95.20;;;;;;5072516;28;20104;-58
2023/05/02 03:22:49;;;;;;;5.35;4.85;;;10.60;95.20;;;;;;5072691;28;20119;-58
2023/05/02 03:25:15;;;;;;;5.57;5.05;;;10.60;95.50;;;;;;5072558;28;20117;-58
2023/05/02 03:27:40;;;;;;;6.57;5.80;;;10.60;95.90;;;;;;5072247;28;20020;-58
2023/05/02 03:30:07;;;;;;;8.95;7.15;;;10.60;96.20;;;;;;5071201;28;20032;-58
2023/05/02 03:32:32;;;;;;;8.82;5.72;;;10.60;96.80;;;;;;5071759;28;20028;-59
2023/05/02 03:34:58;;;;;;;6.45;5.85;;;10.50;96.60;;;;;;5071991;28;20104;-59
2023/05/02 03:37:25;;;;;;;6.88;5.65;;;10.50;96.60;;;;;;5070337;28;20017;-59
2023/05/02 03:39:50;;;;;;;6.07;5.20;;;10.50;97.30;;;;;;5071285;28;20025;-58
2023/05/02 03:42:16;;;;;;;6.35;5.72;;;10.50;97.80;;;;;;5072429;28;20043;-58
2023/05/02 03:44:41;;;;;;;6.18;5.57;;;10.50;97.70;;;;;;5072301;28;20472;-58
2023/05/02 03:47:07;;;;;;;7.40;5.90;;;10.50;97.80;;;;;;5072125;28;20024;-58
2023/05/02 03:49:36;;;;;;;7.30;6.00;;;10.50;98.10;;;;;;5072038;28;20024;-58
2023/05/02 03:52:01;;;;;;;6.32;5.72;;;10.50;98.50;;;;;;5072111;28;20160;-58
2023/05/02 03:54:30;;;;;;;7.22;6.13;;;10.50;98.80;;;;;;5071491;28;20029;-58
2023/05/02 03:56:56;;;;;;;7.10;6.40;;;10.50;98.50;;;;;;5071801;28;20021;-58
2023/05/02 03:59:22;;;;;;;6.40;5.65;;;10.50;98.80;;;;;;5071332;28;20013;-58
2023/05/02 04:01:49;;;;;;;7.65;6.07;;;10.50;98.80;;;;;;5071278;28;20120;-58
2023/05/02 04:04:15;;;;;;;7.50;5.80;;;10.60;99.00;;;;;;5070448;28;20116;-58
2023/05/02 04:06:41;;;;;;;8.10;6.78;;;10.50;98.90;;;;;;5071766;28;20120;-59
2023/05/02 04:09:07;;;;;;;6.82;6.15;;;10.50;99.10;;;;;;5071929;28;20564;-58
2023/05/02 04:11:33;;;;;;;7.80;6.63;;;10.50;99.10;;;;;;5071652;28;20020;-58
2023/05/02 04:13:58;;;;;;;7.00;6.30;;;10.50;99.20;;;;;;5071767;28;20027;-59
2023/05/02 04:16:24;;;;;;;7.18;6.47;;;10.50;99.50;;;;;;5071674;28;20455;-58
2023/05/02 04:18:50;;;;;;;7.63;6.53;;;10.50;99.40;;;;;;5072230;28;20044;-58
2023/05/02 04:21:15;;;;;;;7.38;6.38;;;10.50;99.80;;;;;;5071556;28;20021;-58
2023/05/02 04:23:41;;;;;;;7.13;6.43;;;10.50;99.80;;;;;;5071519;28;20059;-58
2023/05/02 04:26:07;;;;;;;7.60;6.25;;;10.50;99.90;;;;;;5071539;28;20020;-59
2023/05/02 04:28:34;;;;;;;8.02;6.55;;;10.50;99.90;;;;;;5071476;28;20038;-58
2023/05/02 04:31:00;;;;;;;6.47;5.80;;;10.40;99.90;;;;;;5070241;28;20028;-58
2023/05/02 04:33:25;;;;;;;6.00;5.40;;;10.40;99.90;;;;;;5071328;28;20036;-58
2023/05/02 04:35:51;;;;;;;8.93;7.43;;;10.40;99.90;;;;;;5071481;28;20073;-58
2023/05/02 04:38:17;;;;;;;7.88;6.68;;;10.40;99.90;;;;;;5071442;28;20017;-58
2023/05/02 04:40:43;;;;;;;7.45;5.80;;;10.40;99.90;;;;;;5071342;28;20211;-59
2023/05/02 04:43:09;;;;;;;6.05;5.47;;;10.50;99.90;;;;;;5071605;28;20029;-59
2023/05/02 04:45:35;;;;;;;6.53;5.93;;;10.50;99.90;;;;;;5071356;28;20048;-58
2023/05/02 04:48:01;;;;;;;7.15;5.60;;;10.50;99.90;;;;;;5070015;28;20592;-59
2023/05/02 04:50:28;;;;;;;7.75;6.90;;;10.50;99.90;;;;;;5071327;28;20021;-58
2023/05/02 04:52:53;;;;;;;8.40;7.55;;;10.50;99.90;;;;;;5071271;28;20070;-58
2023/05/02 04:55:19;;;;;;;8.40;7.22;;;10.50;99.90;;;;;;5071065;28;20112;-58
2023/05/02 04:57:45;;;;;;;7.93;7.15;;;10.50;99.90;;;;;;5071299;28;20029;-58
2023/05/02 05:00:11;;;;;;;7.78;6.35;;;10.50;99.90;;;;;;5069954;28;20032;-58
2023/05/02 05:02:38;;;;;;;7.47;6.22;;;10.60;99.90;;;;;;5070936;28;20155;-58
2023/05/02 05:05:04;;;;;;;7.30;6.60;;;10.60;99.90;;;;;;5072592;28;20464;-58
2023/05/02 05:07:30;;;;;;;6.50;5.93;;;10.60;99.90;;;;;;5075065;28;20482;-58
2023/05/02 05:09:56;;;;;;;6.45;5.85;;;10.50;99.90;;;;;;5074946;28;20036;-58
2023/05/02 05:12:22;;;;;;;6.95;6.25;;;10.50;99.90;;;;;;5074908;28;20024;-58
2023/05/02 05:14:49;;;;;;;7.20;6.50;;;10.50;99.90;;;;;;5074911;28;20387;-58
2023/05/02 05:17:15;;;;;;;7.10;6.45;;;10.50;99.90;;;;;;5075143;28;20021;-58
2023/05/02 05:19:41;;;;;;;6.45;5.88;;;10.50;99.90;;;;;;5074965;28;20023;-58
2023/05/02 05:22:07;;;;;;;7.50;6.78;;;10.40;99.90;;;;;;5074787;28;20044;-59
2023/05/02 05:24:33;;;;;;;8.00;6.78;;;10.50;99.90;;;;;;5074663;28;20025;-64
2023/05/02 05:26:58;;;;;;;6.25;5.72;;;10.50;99.90;;;;;;5074944;28;20021;-59
2023/05/02 05:29:24;;;;;;;7.60;6.88;;;10.50;99.90;;;;;;5074561;28;20070;-59
2023/05/02 05:31:50;;;;;;;7.85;6.50;;;10.60;99.90;;;;;;5074857;28;20024;-58
2023/05/02 05:34:15;;;;;;;7.53;5.85;;;10.60;99.90;;;;;;5074652;28;20041;-60
2023/05/02 05:36:41;;;;;;;7.18;5.75;;;10.60;99.90;;;;;;5074417;28;20024;-58
2023/05/02 05:39:07;;;;;;;7.22;6.13;;;10.60;99.90;;;;;;5074622;28;20426;-59
2023/05/02 05:41:34;;;;;;;9.00;7.50;;;10.60;99.90;;;;;;5074330;28;20021;-57
2023/05/02 05:44:00;;;;;;;7.53;6.47;;;10.60;99.90;;;;;;5074607;28;20020;-58
2023/05/02 05:46:25;;;;;;;6.82;5.82;;;10.60;99.90;;;;;;5074402;28;20031;-59
2023/05/02 05:48:51;;;;;;;6.65;5.97;;;10.60;99.90;;;;;;5074391;28;20024;-59
2023/05/02 05:51:17;;;;;;;7.15;6.28;;;10.70;99.90;;;;;;5074403;28;20017;-59
2023/05/02 05:53:42;;;;;;;7.47;6.78;;;10.70;99.90;;;;;;5072826;28;20448;-58
2023/05/02 05:56:12;;;;;;;6.53;5.88;;;10.70;99.90;;;;;;5074291;28;20673;-59
2023/05/02 05:58:38;;;;;;;9.13;6.70;;;10.70;99.90;;;;;;5074216;28;20035;-59
2023/05/02 06:01:05;;;;;;;7.82;5.95;;;10.70;99.90;;;;;;5074194;28;20641;-58
2023/05/02 06:03:31;;;;;;;6.93;6.28;;;10.80;99.90;;;;;;5073896;28;20087;-59
2023/05/02 06:05:56;;;;;;;6.95;6.22;;;10.80;99.90;;;;;;5073911;28;20053;-59
2023/05/02 06:08:22;;;;;;;7.57;6.60;;;10.80;99.90;;;;;;5074016;28;20429;-59
2023/05/02 06:10:48;;;;;;;8.02;6.47;;;10.90;99.60;;;;;;5074209;28;20029;-59
2023/05/02 06:13:14;;;;;;;6.78;6.07;;;10.90;99.90;;;;;;5073848;28;20032;-58
2023/05/02 06:15:39;;;;;;;7.60;6.10;;;11.00;99.90;;;;;;5073214;28;20375;-59
2023/05/02 06:18:05;;;;;;;7.18;5.45;;;11.10;99.90;;;;;;5071966;28;20078;-58
2023/05/02 06:20:31;;;;;;;7.63;5.55;;;11.30;97.50;;;;;;5073809;28;20435;-59
2023/05/02 06:22:56;;;;;;;6.32;5.72;;;11.40;95.00;;;;;;5073746;28;20387;-58
2023/05/02 06:25:22;;;;;;;6.85;5.97;;;11.40;93.70;;;;;;5073879;28;20345;-58
2023/05/02 06:27:48;;;;;;;6.32;5.70;;;11.50;94.80;;;;;;5071955;28;20122;-58
2023/05/02 06:30:13;;;;;;;5.95;5.20;;;11.50;95.60;;;;;;5073529;28;20123;-57
2023/05/02 06:32:41;;;;;;;6.05;5.43;;;11.60;94.20;;;;;;5073138;28;20029;-57
2023/05/02 06:35:07;;;;;;;7.38;6.63;;;11.60;91.10;;;;;;5073126;28;20024;-54
2023/05/02 06:37:34;;;;;;;19.77;6.20;;;11.70;92.90;;;;;;5073411;28;20016;-57
2023/05/02 06:40:00;;;;;;;6.25;5.65;;;11.70;89.60;;;;;;5073569;28;20027;-58
2023/05/02 06:42:25;;;;;;;8.38;6.60;;;11.90;89.20;;;;;;5073364;28;20024;-57
2023/05/02 06:44:51;;;;;;;6.72;6.13;;;11.70;88.70;;;;;;5073454;28;20503;-57
2023/05/02 06:47:17;;;;;;;7.38;6.68;;;11.90;91.50;;;;;;5050614;28;20029;-55
2023/05/02 06:49:42;;;;;;;11.30;8.27;;;12.00;85.40;;;;;;5042366;28;20274;-58
2023/05/02 06:52:08;;;;;;;7.82;6.65;;;12.00;89.50;;;;;;5043586;28;20508;-57
2023/05/02 06:54:34;;;;;;;7.72;7.03;;;12.00;82.10;;;;;;5041719;28;20108;-58
2023/05/02 06:57:00;;;;;;;8.70;7.80;;;12.00;89.70;;;;;;5043085;28;20128;-57
2023/05/02 06:59:26;;;;;;;8.55;7.68;;;12.10;80.50;;;;;;5041892;28;20029;-58
2023/05/02 07:01:52;;;;;;;11.57;8.65;;;12.20;82.80;;;;;;5041953;28;20048;-58
2023/05/02 07:04:18;;;;;;;8.80;7.43;;;12.20;74.20;;;;;;5041940;28;20420;-57
2023/05/02 07:06:44;;;;;;;11.10;7.05;;;12.40;77.40;;;;;;5042899;28;20060;-58
2023/05/02 07:09:10;;;;;;;7.63;6.85;;;12.30;76.90;;;;;;5042611;28;20048;-58
2023/05/02 07:11:36;;;;;;;7.53;6.57;;;12.20;83.40;;;;;;5042649;28;20103;-58
2023/05/02 07:14:02;;;;;;;7.53;6.82;;;12.30;81.20;;;;;;5041617;28;20064;-58
2023/05/02 07:16:27;;;;;;;6.75;6.15;;;12.60;73.60;;;;;;5042074;28;20110;-58
2023/05/02 07:18:53;;;;;;;7.15;6.32;;;12.70;69.70;;;;;;5041808;28;20083;-58
2023/05/02 07:21:18;;;;;;;21.75;14.55;;;12.70;64.20;;;;;;5042009;28;20029;-58
2023/05/02 07:23:44;;;;;;;10.90;7.65;;;12.70;64.70;;;;;;5041128;28;20468;-58
2023/05/02 07:26:10;;;;;;;8.35;7.32;;;12.60;58.30;;;;;;5042601;28;22412;-58
2023/05/02 07:28:35;;;;;;;8.20;7.35;;;12.80;55.50;;;;;;5041426;28;20183;-57
2023/05/02 07:31:02;;;;;;;10.20;7.45;;;12.80;48.10;;;;;;5041918;28;20079;-55
2023/05/02 07:33:28;;;;;;;13.68;6.72;;;12.80;62.00;;;;;;5041523;28;20731;-58
2023/05/02 07:35:55;;;;;;;8.55;7.25;;;12.80;56.20;;;;;;5041422;28;20025;-58
2023/05/02 07:38:21;;;;;;;7.85;6.93;;;12.70;67.90;;;;;;5041525;28;20032;-58
2023/05/02 07:40:46;;;;;;;9.75;6.70;;;12.80;62.60;;;;;;5041700;28;20025;-57
2023/05/02 07:43:14;;;;;;;7.57;6.88;;;12.80;49.80;;;;;;5055444;28;20036;-58
2023/05/02 07:45:40;;;;;;;11.02;7.60;;;12.80;57.70;;;;;;5057831;28;20036;-58
2023/05/02 07:48:06;;;;;;;9.25;8.15;;;12.90;47.80;;;;;;5041249;28;20372;-57
2023/05/02 07:50:31;;;;;;;7.68;6.85;;;13.00;55.60;;;;;;5041094;28;20112;-57
2023/05/02 07:52:57;;;;;;;7.15;6.53;;;13.10;42.70;;;;;;5041662;28;20036;-58
2023/05/02 07:55:25;;;;;;;8.32;7.55;;;13.20;18.30;;;;;;5040789;28;20033;-58
2023/05/02 07:57:51;;;;;;;7.72;7.05;;;13.20;47.20;;;;;;5060456;28;20086;-58
2023/05/02 08:00:17;;;;;;;7.65;6.90;;;13.30;32.50;;;;;;5061180;28;20024;-58
2023/05/02 08:02:44;;;;;;;7.85;6.60;;;13.30;31.70;;;;;;5049855;28;20052;-56
2023/05/02 08:05:09;;;;;;;8.02;7.22;;;13.40;27.10;;;;;;5060265;28;20031;-58
2023/05/02 08:07:35;;;;;;;7.97;7.18;;;13.20;35.00;;;;;;5059163;28;20044;-59
2023/05/02 08:10:01;;;;;;;11.07;8.77;;;13.40;24.60;;;;;;5071747;28;20552;-58
2023/05/02 08:12:27;;;;;;;9.35;8.45;;;13.50;25.00;;;;;;5039476;28;20033;-58
2023/05/02 08:14:53;;;;;;;11.80;10.10;;;13.40;33.20;;;;;;5049836;28;20384;-58
2023/05/02 08:17:18;;;;;;;10.45;9.02;;;13.80;40.40;;;;;;5050453;28;20025;-58
2023/05/02 08:19:44;;;;;;;12.02;9.55;;;13.90;15.20;;;;;;5051139;28;20044;-58
2023/05/02 08:22:10;;;;;;;8.35;7.53;;;14.00;1.00;;;;;;5049805;28;20021;-58
2023/05/02 08:24:35;;;;;;;8.82;7.78;;;14.10;10.10;;;;;;5050950;28;20052;-58
2023/05/02 08:27:05;;;;;;;8.48;7.55;;;14.10;1.00;;;;;;5050874;28;20025;-58
2023/05/02 08:29:31;;;;;;;8.00;7.22;;;14.00;1.00;;;;;;5049544;28;20013;-58
2023/05/02 08:31:57;;;;;;;9.68;8.77;;;13.70;1.00;;;;;;5050092;28;20052;-58
2023/05/02 08:34:22;;;;;;;8.52;7.63;;;13.60;1.00;;;;;;5050223;28;20115;-58
2023/05/02 08:36:48;;;;;;;9.75;7.78;;;14.00;1.00;;;;;;5082330;28;20056;-58
2023/05/02 08:39:14;;;;;;;10.02;7.43;;;14.20;1.00;;;;;;5050152;28;20110;-58
2023/05/02 08:41:39;;;;;;;9.43;7.40;;;14.20;1.00;;;;;;5050198;28;20147;-58
2023/05/02 08:44:06;;;;;;;8.57;7.18;;;13.80;1.00;;;;;;5050124;28;20435;-58
2023/05/02 08:46:35;;;;;;;10.48;7.63;;;14.20;1.00;;;;;;5050890;28;20086;-58
2023/05/02 08:49:02;;;;;;;9.55;7.88;;;14.40;1.00;;;;;;5051423;28;20048;-57
2023/05/02 08:51:31;;;;;;;10.23;7.20;;;14.20;1.00;;;;;;5050961;28;20538;-58
2023/05/02 08:53:58;;;;;;;8.18;6.45;;;14.30;1.00;;;;;;5050996;28;20108;-57
2023/05/02 08:56:25;;;;;;;8.45;6.85;;;14.40;1.00;;;;;;5051060;28;20017;-57
2023/05/02 08:58:51;;;;;;;9.35;7.38;;;14.60;1.00;;;;;;5051082;28;20021;-54
2023/05/02 09:01:19;;;;;;;10.32;6.78;;;14.30;1.00;;;;;;5050801;28;20079;-54
2023/05/02 09:03:47;;;;;;;6.78;6.18;;;14.70;1.00;;;;;;5050776;28;20412;-57
2023/05/02 09:06:18;;;;;;;7.38;6.68;;;15.10;99.90;;;;;;5051373;28;20033;-57
2023/05/02 09:08:48;;;;;;;10.27;6.47;;;14.90;1.00;;;;;;5084021;28;20025;-58
2023/05/02 09:11:14;;;;;;;7.72;6.95;;;14.80;99.90;;;;;;5049773;28;20021;-57
2023/05/02 09:13:45;;;;;;;7.43;6.70;;;15.00;1.00;;;;;;5051094;28;20104;-58
2023/05/02 09:16:16;;;;;;;11.57;7.00;;;14.60;99.90;;;;;;5051030;28;20021;-57
2023/05/02 09:18:49;;;;;;;8.13;7.32;;;15.20;1.00;;;;;;5051059;28;20368;-57
2023/05/02 09:21:19;;;;;;;;;;;15.00;99.90;;;;;;5051599;28;20040;-57
2023/05/02 09:23:47;;;;;;;10.45;6.93;;;15.10;99.90;;;;;;5050926;28;19931;-56
2023/05/02 09:26:21;;;;;;;6.95;6.30;;;15.00;99.90;;;;;;5051127;28;20021;-57
2023/05/02 09:28:47;;;;;;;16.98;7.47;;;15.30;99.90;;;;;;5051043;28;20090;-57
2023/05/02 09:31:15;;;;;;;8.20;6.80;;;15.30;99.90;;;;;;5061554;28;20452;-58
2023/05/02 09:33:42;;;;;;;10.75;6.72;;;14.70;99.90;;;;;;5070794;28;20056;-58
2023/05/02 09:36:10;;;;;;;7.07;6.15;;;15.10;99.90;;;;;;5069095;28;20036;-58
2023/05/02 09:38:38;;;;;;;8.00;6.40;;;15.60;99.90;;;;;;5070804;28;20027;-58
2023/05/02 09:41:03;;;;;;;7.05;6.45;;;15.50;99.90;;;;;;5070836;28;20410;-58
2023/05/02 09:43:31;;;;;;;6.65;6.00;;;15.80;41.00;;;;;;5070758;28;20028;-58
2023/05/02 09:46:05;;;;;;;6.88;6.18;;;15.70;99.90;;;;;;5048983;28;20036;-56
2023/05/02 09:48:32;;;;;;;9.25;6.95;;;16.10;99.90;;;;;;5052298;28;20051;-58
2023/05/02 09:50:58;;;;;;;7.18;6.45;;;15.60;1.00;;;;;;5041195;28;20036;-57
2023/05/02 09:53:26;;;;;;;9.88;6.97;;;15.30;1.00;;;;;;5043012;28;20473;-57
2023/05/02 09:56:03;;;;;;;7.65;6.70;;;15.70;1.00;;;;;;5043963;28;20025;-57
2023/05/02 09:58:29;;;;;;;7.38;6.18;;;16.30;99.90;;;;;;5044947;28;20401;-55
2023/05/02 10:00:56;;;;;;;7.45;5.80;;;16.10;1.00;;;;;;5042559;28;20102;-56
2023/05/02 10:03:24;;;;;;;7.25;5.22;;;16.30;1.00;;;;;;5045463;28;20048;-56
2023/05/02 10:05:51;;;;;;;6.65;5.80;;;16.50;99.90;;;;;;5043342;28;20041;-58
2023/05/02 10:08:18;;;;;;;6.90;5.68;;;16.30;99.90;;;;;;5042495;28;20021;-58
2023/05/02 10:10:56;;;;;;;5.70;4.85;;;16.70;1.00;;;;;;5042831;28;20021;-58
2023/05/02 10:13:23;;;;;;;9.57;5.13;;;17.10;1.00;;;;;;5043205;28;20032;-58
2023/05/02 10:16:03;;;;;;;9.55;4.90;;;16.90;31.70;;;;;;5041616;28;20098;-57
2023/05/02 10:18:39;;;;;;;11.07;5.28;;;16.90;99.90;;;;;;5043331;28;20052;-57
2023/05/02 10:21:08;;;;;;;6.82;5.53;;;16.80;1.00;;;;;;5043227;28;20407;-57
2023/05/02 10:23:34;;;;;;;9.73;5.82;;;17.40;99.90;;;;;;5041285;28;20029;-56
2023/05/02 10:26:00;;;;;;;5.68;5.07;;;17.20;56.70;;;;;;5043162;28;20028;-57
2023/05/02 10:28:27;;;;;;;10.88;6.10;;;16.70;99.90;;;;;;5041914;28;20041;-58
2023/05/02 10:30:53;;;;;;;7.53;5.60;;;16.20;1.00;;;;;;5042900;28;20017;-58
2023/05/02 10:33:20;;;;;;;15.90;5.53;;;16.30;99.90;;;;;;5042446;28;20380;-58
2023/05/02 10:35:46;;;;;;;7.20;5.40;;;16.90;20.80;;;;;;5041346;28;20025;-56
2023/05/02 10:38:15;;;;;;;6.22;5.55;;;16.90;99.90;;;;;;5042040;28;20028;-57
2023/05/02 10:40:46;;;;;;;8.00;5.10;;;17.10;1.00;;;;;;5043063;28;20024;-53
2023/05/02 10:43:15;;;;;;;6.18;5.50;;;17.30;99.90;;;;;;5042753;28;20052;-57
2023/05/02 10:45:41;;;;;;;6.63;5.07;;;17.60;99.90;;;;;;5042717;28;20116;-57
2023/05/02 10:52:23;;;;;;;5.60;5.10;;;17.20;1.00;;;;;;5041297;28;20067;-56
2023/05/02 10:54:49;;;;;;;7.15;5.25;;;16.80;1.00;;;;;;5041788;28;20044;-56
2023/05/02 10:57:15;;;;;;;10.82;5.22;;;16.20;99.90;;;;;;5043503;28;20523;-55
2023/05/02 10:59:41;;;;;;;4.63;4.10;;;16.40;99.90;;;;;;5044445;28;20045;-58
2023/05/02 11:02:22;;;;;;;8.15;4.30;;;16.40;99.90;;;;;;5052495;28;20052;-56
2023/05/02 11:05:01;;;;;;;5.18;4.68;;;16.50;44.70;;;;;;5053067;28;20056;-57
2023/05/02 11:07:28;;;;;;;9.57;4.28;;;16.60;99.90;;;;;;5052561;28;20021;-58
2023/05/02 11:10:16;;;;;;;7.43;4.72;;;16.70;99.90;;;;;;5052271;28;20025;-57
2023/05/02 11:12:47;;;;;;;6.82;4.35;;;16.80;75.70;;;;;;5051367;28;20395;-58
2023/05/02 11:15:25;;;;;;;6.60;4.30;;;16.80;1.00;;;;;;5052249;28;20074;-57
2023/05/02 11:18:02;;;;;;;6.28;4.72;;;17.00;6.00;;;;;;5052684;28;20048;-57
2023/05/02 11:20:29;;;;;;;6.68;4.50;;;16.50;99.90;;;;;;5052651;28;20074;-56
2023/05/02 11:23:20;;;;;;;6.18;4.70;;;16.30;99.90;;;;;;5052716;28;20728;-55
2023/05/02 11:26:20;;;;;;;6.28;5.28;;;16.40;99.90;;;;;;5048803;28;20033;-57
2023/05/02 11:28:46;;;;;;;8.57;5.38;;;16.20;99.90;;;;;;5052526;28;20032;-56
2023/05/02 11:31:27;;;;;;;5.47;4.97;;;16.00;1.00;;;;;;5052607;28;20029;-56
2023/05/02 11:34:00;;;;;;;5.60;4.72;;;15.80;50.20;;;;;;5064090;28;20029;-52
2023/05/02 11:36:33;;;;;;;5.63;5.03;;;15.50;16.00;;;;;;5072141;28;20024;-57
2023/05/02 11:39:00;;;;;;;7.05;5.00;;;15.40;99.90;;;;;;5067970;28;20099;-58
2023/05/02 11:41:43;;;;;;;5.57;5.03;;;15.50;1.00;;;;;;5071375;28;20111;-58
2023/05/02 11:44:08;;;;;;;5.32;4.82;;;15.60;1.00;;;;;;5071538;28;20099;-58
2023/05/02 11:46:39;;;;;;;6.18;4.57;;;15.70;1.00;;;;;;5070982;28;20404;-58
2023/05/02 11:49:06;;;;;;;7.00;6.35;;;16.10;1.00;;;;;;5071402;28;20111;-58
2023/05/02 11:51:32;;;;;;;8.50;6.05;;;16.20;99.90;;;;;;5071790;28;20107;-58
2023/05/02 11:53:58;;;;;;;6.00;5.40;;;16.20;99.90;;;;;;5071541;28;20116;-57
2023/05/02 11:56:29;;;;;;;15.35;7.05;;;16.40;1.00;;;;;;5071490;28;20103;-58
2023/05/02 11:59:02;;;;;;;5.88;5.03;;;16.20;1.00;;;;;;5071347;28;20020;-56
2023/05/02 12:01:29;;;;;;;7.25;6.00;;;16.20;99.90;;;;;;5071196;28;20028;-56
2023/05/02 12:04:09;;;;;;;6.25;5.45;;;16.30;99.50;;;;;;5071553;28;20036;-56
2023/05/02 12:06:35;;;;;;;7.32;6.55;;;16.30;99.90;;;;;;5071614;28;20078;-57
2023/05/02 12:09:16;;;;;;;6.15;5.60;;;16.20;99.90;;;;;;5070843;28;20017;-55
2023/05/02 12:11:45;;;;;;;11.95;5.68;;;16.30;1.00;;;;;;5071185;28;20074;-57
2023/05/02 12:14:11;;;;;;;7.05;4.75;;;16.20;1.00;;;;;;5071307;28;20082;-57
2023/05/02 12:16:37;;;;;;;7.10;5.65;;;16.60;1.00;;;;;;5071286;28;20109;-55
2023/05/02 12:19:04;;;;;;;7.80;5.32;;;16.50;99.90;;;;;;5071078;28;20090;-57
2023/05/02 12:21:31;;;;;;;7.55;5.63;;;16.60;99.90;;;;;;5071221;28;20027;-58
2023/05/02 12:23:57;;;;;;;8.35;6.03;;;16.40;11.70;;;;;;5068907;28;20052;-58
2023/05/02 12:26:28;;;;;;;6.55;5.38;;;16.20;99.90;;;;;;5069246;28;20032;-57
2023/05/02 12:28:54;;;;;;;5.38;4.53;;;16.20;99.90;;;;;;5071110;28;20107;-58
2023/05/02 12:31:20;;;;;;;6.72;4.82;;;16.40;99.90;;;;;;5071058;28;20047;-58
2023/05/02 12:33:51;;;;;;;12.82;5.88;;;16.50;1.00;;;;;;5071114;28;20032;-58
2023/05/02 12:36:20;;;;;;;6.32;5.07;;;15.90;99.90;;;;;;5069866;28;20021;-58
2023/05/02 12:38:51;;;;;;;6.38;5.25;;;16.10;99.90;;;;;;5071317;28;20063;-57
2023/05/02 12:41:18;;;;;;;8.50;5.22;;;15.90;1.00;;;;;;5071388;28;20023;-57
2023/05/02 12:43:48;;;;;;;8.38;5.18;;;16.10;99.90;;;;;;5071130;28;20119;-57
2023/05/02 12:46:14;;;;;;;9.60;5.68;;;16.10;1.00;;;;;;5071320;28;20446;-58
2023/05/02 12:48:39;;;;;;;7.68;4.80;;;16.30;1.00;;;;;;5071188;28;20086;-57
2023/05/02 12:51:06;;;;;;;7.10;5.40;;;16.30;99.90;;;;;;5071287;28;20048;-58
2023/05/02 12:53:42;;;;;;;8.73;5.40;;;16.10;99.90;;;;;;5070478;28;20020;-57
2023/05/02 12:56:09;;;;;;;6.22;5.03;;;16.00;99.90;;;;;;5069171;28;20024;-58
2023/05/02 12:58:45;;;;;;;6.15;5.55;;;16.20;99.90;;;;;;5070287;28;20021;-58
2023/05/02 13:01:12;;;;;;;11.40;5.25;;;16.20;99.90;;;;;;5071252;28;20019;-58